Time;durP1;ratioP1;P1;durP2;ratioP2;P2;SDS_P1;SDS_P2;PMS_P1;PMS_P2;Temp;Humidity;BMP_temperature;BMP_pressure;BME280_temperature;BME280_humidity;BME280_pressure;Samples;Min_cycle;Max_cycle;Signal;HPM_P1;HPM_P2
2021/05/10 00:00:44;;;;;;;;;;;;;;;21.60;31.17;98840.63;4943257;29;1898;-76
2021/05/10 00:03:09;;;;;;;;;;;;;;;21.55;31.27;98839.09;4943341;29;627;-76
2021/05/10 00:05:35;;;;;;;;;;;;;;;21.60;31.28;98843.47;4942939;29;985;-77
2021/05/10 00:08:00;;;;;;;;;;;;;;;21.58;31.22;98831.75;4942893;29;889;-77
2021/05/10 00:10:26;;;;;;;;;;;;;;;21.65;31.07;98840.16;4943208;29;981;-77
2021/05/10 00:12:51;;;;;;;;;;;;;;;21.63;31.24;98834.13;4943138;29;659;-76
2021/05/10 00:15:17;;;;;;;;;;;;;;;21.61;31.07;98830.94;4926814;29;1189;-77
2021/05/10 00:17:42;;;;;;;;;;;;;;;21.61;31.16;98830.13;4943217;29;704;-77
2021/05/10 00:20:08;;;;;;;;;;;;;;;21.63;31.07;98822.78;4942694;29;1973;-76
2021/05/10 00:22:33;;;;;;;;;;;;;;;21.60;31.04;98829.31;4942674;29;852;-77
2021/05/10 00:24:59;;;;;;;;;;;;;;;21.68;30.74;98830.81;4942953;29;1116;-77
2021/05/10 00:27:24;;;;;;;;;;;;;;;21.54;30.99;98834.63;4942928;29;743;-76
2021/05/10 00:29:50;;;;;;;;;;;;;;;21.40;31.29;98834.84;4942865;29;712;-77
2021/05/10 00:32:15;;;;;;;;;;;;;;;21.47;30.94;98826.25;4942652;29;987;-77
2021/05/10 00:34:40;;;;;;;;;;;;;;;21.58;30.65;98834.59;4942747;29;974;-76
2021/05/10 00:37:06;;;;;;;;;;;;;;;21.49;31.09;98822.97;4942589;29;949;-77
2021/05/10 00:39:31;;;;;;;;;;;;;;;21.41;31.25;98829.97;4942871;29;640;-76
2021/05/10 00:41:57;;;;;;;;;;;;;;;21.43;31.35;98825.47;4942700;29;1969;-77
2021/05/10 00:44:22;;;;;;;;;;;;;;;21.44;31.13;98827.09;4942719;29;660;-77
2021/05/10 00:46:48;;;;;;;;;;;;;;;21.50;30.99;98827.41;4926315;29;1090;-76
2021/05/10 00:49:14;;;;;;;;;;;;;;;21.53;30.83;98820.91;4942565;29;840;-77
2021/05/10 00:51:39;;;;;;;;;;;;;;;21.53;30.73;98823.75;4942908;29;880;-77
2021/05/10 00:54:05;;;;;;;;;;;;;;;21.51;30.68;98812.84;4942886;29;612;-77
2021/05/10 00:56:30;;;;;;;;;;;;;;;21.58;30.89;98821.25;4942803;29;844;-77
2021/05/10 00:58:56;;;;;;;;;;;;;;;21.49;30.74;98817.31;4942354;29;946;-76
2021/05/10 01:01:21;;;;;;;;;;;;;;;21.52;30.90;98822.16;4926057;29;1970;-77
2021/05/10 01:03:51;;;;;;;;;;;;;;;21.52;30.59;98811.63;4945295;29;854;-77
2021/05/10 01:06:16;;;;;;;;;;;;;;;21.54;30.59;98814.81;4946462;29;726;-77
2021/05/10 01:08:42;;;;;;;;;;;;;;;21.65;30.34;98814.66;4946413;29;647;-77
2021/05/10 01:11:07;;;;;;;;;;;;;;;21.63;30.48;98813.50;4929950;29;583;-76
2021/05/10 01:13:33;;;;;;;;;;;;;;;21.63;30.32;98802.97;4946156;29;960;-77
2021/05/10 01:15:58;;;;;;;;;;;;;;;21.53;30.33;98809.59;4946438;29;889;-77
2021/05/10 01:18:24;;;;;;;;;;;;;;;21.56;30.39;98817.25;4946178;29;967;-76
2021/05/10 01:20:50;;;;;;;;;;;;;;;21.60;30.34;98812.31;4946265;29;1911;-77
2021/05/10 01:23:15;;;;;;;;;;;;;;;21.58;30.15;98817.59;4946185;29;839;-77
2021/05/10 01:25:41;;;;;;;;;;;;;;;21.64;30.38;98813.06;4929576;29;716;-77
2021/05/10 01:28:06;;;;;;;;;;;;;;;21.57;30.31;98804.69;4945937;29;868;-77
2021/05/10 01:30:35;;;;;;;;;;;;;;;21.52;30.53;98805.16;4945790;29;923;-77
2021/05/10 01:33:01;;;;;;;;;;;;;;;21.44;30.55;98803.63;4929403;29;896;-77
2021/05/10 01:35:28;;;;;;;;;;;;;;;21.47;30.63;98803.59;4946078;29;675;-77
2021/05/10 01:37:53;;;;;;;;;;;;;;;21.49;30.40;98800.31;4945862;29;1238;-77
2021/05/10 01:40:19;;;;;;;;;;;;;;;21.52;30.33;98800.28;4945500;29;1906;-77
2021/05/10 01:42:44;;;;;;;;;;;;;;;21.56;30.18;98800.25;4945546;29;929;-76
2021/05/10 01:45:10;;;;;;;;;;;;;;;21.49;30.55;98794.66;4945860;29;1185;-77
2021/05/10 01:47:35;;;;;;;;;;;;;;;21.60;30.35;98795.31;4945711;29;700;-77
2021/05/10 01:50:11;;;;;;;;;;;;;;;21.58;30.56;98792.13;4945701;29;651;-77
2021/05/10 01:52:36;;;;;;;;;;;;;;;21.58;30.44;98797.78;4945932;29;791;-76
2021/05/10 01:55:14;;;;;;;;;;;;;;;21.63;30.22;98800.13;4945722;29;656;-77
2021/05/10 01:57:40;;;;;;;;;;;;;;;21.51;30.22;98793.03;4928977;29;917;-77
2021/05/10 02:00:09;;;;;;;;;;;;;;;21.51;30.13;98792.22;4945098;29;1984;-77
2021/05/10 02:02:34;;;;;;;;;;;;;;;21.50;30.30;98790.59;4945490;29;727;-77
2021/05/10 02:05:06;;;;;;;;;;;;;;;21.54;30.28;98789.31;4945472;29;719;-77
2021/05/10 02:07:32;;;;;;;;;;;;;;;21.43;30.16;98791.50;4945442;29;620;-77
2021/05/10 02:09:58;;;;;;;;;;;;;;;21.49;30.35;98783.34;4945391;29;631;-76
2021/05/10 02:12:23;;;;;;;;;;;;;;;21.31;30.35;98789.25;4945292;29;864;-76
2021/05/10 02:14:49;;;;;;;;;;;;;;;21.40;30.44;98785.88;4944966;29;663;-77
2021/05/10 02:17:14;;;;;;;;;;;;;;;21.59;30.09;98788.06;4945019;29;839;-76
2021/05/10 02:19:39;;;;;;;;;;;;;;;21.56;30.17;98783.25;4944795;29;1899;-77
2021/05/10 02:22:05;;;;;;;;;;;;;;;21.45;30.21;98777.75;4945010;29;925;-77
2021/05/10 02:24:31;;;;;;;;;;;;;;;21.61;30.07;98779.94;4945546;29;755;-77
2021/05/10 02:26:56;;;;;;;;;;;;;;;21.58;30.06;98792.13;4945054;29;835;-76
2021/05/10 02:29:21;;;;;;;;;;;;;;;21.53;30.33;98784.09;4945218;29;612;-77
2021/05/10 02:31:47;;;;;;;;;;;;;;;21.57;30.00;98782.81;4944708;29;991;-77
2021/05/10 02:34:12;;;;;;;;;;;;;;;21.55;30.37;98781.63;4945014;29;834;-77
2021/05/10 02:36:38;;;;;;;;;;;;;;;21.55;30.38;98787.28;4944727;29;965;-76
2021/05/10 02:39:03;;;;;;;;;;;;;;;21.53;30.12;98784.09;4944972;29;675;-76
2021/05/10 02:41:29;;;;;;;;;;;;;;;21.45;30.49;98789.06;4944745;29;1907;-77
2021/05/10 02:43:55;;;;;;;;;;;;;;;21.55;30.54;98790.97;4944690;29;666;-77
2021/05/10 02:46:20;;;;;;;;;;;;;;;21.51;30.30;98792.22;4944504;29;1002;-77
2021/05/10 02:48:45;;;;;;;;;;;;;;;21.44;30.39;98792.31;4944301;29;843;-77
2021/05/10 02:51:11;;;;;;;;;;;;;;;21.52;30.26;98799.50;4944498;29;924;-77
2021/05/10 02:53:36;;;;;;;;;;;;;;;21.51;30.43;98798.69;4944596;29;758;-77
2021/05/10 02:56:02;;;;;;;;;;;;;;;21.59;30.22;98799.38;4928211;29;665;-77
2021/05/10 02:58:33;;;;;;;;;;;;;;;21.50;30.27;98804.75;4944476;29;698;-76
2021/05/10 03:00:59;;;;;;;;;;;;;;;21.57;30.36;98805.47;4944356;29;1965;-77
2021/05/10 03:03:24;;;;;;;;;;;;;;;21.49;30.46;98794.66;4927900;29;1139;-77
2021/05/10 03:05:51;;;;;;;;;;;;;;;21.50;30.59;98807.59;4943985;29;880;-77
2021/05/10 03:08:16;;;;;;;;;;;;;;;21.41;30.25;98798.84;4944250;29;1077;-77
2021/05/10 03:10:42;;;;;;;;;;;;;;;21.54;30.21;98814.00;4944289;29;651;-77
2021/05/10 03:13:07;;;;;;;;;;;;;;;21.67;30.05;98815.06;4944282;29;659;-77
2021/05/10 03:15:33;;;;;;;;;;;;;;;21.51;30.19;98812.03;4944156;29;660;-77
2021/05/10 03:17:58;;;;;;;;;;;;;;;21.51;30.43;98815.69;4943733;29;999;-76
2021/05/10 03:20:24;;;;;;;;;;;;;;;21.62;30.08;98824.03;4943791;29;1968;-76
2021/05/10 03:22:51;;;;;;;;;;;;;;;21.55;30.33;98826.94;4944156;29;813;-77
2021/05/10 03:25:17;;;;;;;;;;;;;;;21.52;30.45;98811.63;4943264;29;668;-76
2021/05/10 03:27:42;;;;;;;;;;;;;;;21.55;30.66;98809.94;4938142;29;1153;-77
2021/05/10 03:30:09;;;;;;;;;;;;;;;21.63;30.13;98817.13;4943898;29;855;-77
2021/05/10 03:32:34;;;;;;;;;;;;;;;21.67;30.11;98815.06;4937004;29;1043;-75
2021/05/10 03:34:59;;;;;;;;;;;;;;;21.69;30.25;98815.41;4934605;29;1204;-76
2021/05/10 03:37:25;;;;;;;;;;;;;;;21.65;30.22;98809.00;4942334;29;1296;-76
2021/05/10 03:39:50;;;;;;;;;;;;;;;21.64;30.29;98813.06;4925578;29;1898;-76
2021/05/10 03:42:16;;;;;;;;;;;;;;;21.61;30.41;98816.75;4908082;29;1373;-76
2021/05/10 03:44:41;;;;;;;;;;;;;;;21.54;30.46;98808.34;4924559;29;652;-77
2021/05/10 03:47:10;;;;;;;;;;;;;;;21.65;30.22;98817.50;4924211;29;967;-76
2021/05/10 03:49:35;;;;;;;;;;;;;;;21.64;30.38;98807.41;4924301;29;938;-75
2021/05/10 03:52:01;;;;;;;;;;;;;;;21.39;30.93;98807.72;4924579;29;976;-76
2021/05/10 03:54:26;;;;;;;;;;;;;;;21.53;30.53;98810.38;4924431;29;656;-77
2021/05/10 03:56:51;;;;;;;;;;;;;;;21.59;30.36;98819.19;4924403;29;667;-77
2021/05/10 03:59:18;;;;;;;;;;;;;;;21.68;30.31;98816.66;4924471;29;660;-77
2021/05/10 04:01:44;;;;;;;;;;;;;;;21.70;30.30;98805.69;4923998;29;1907;-77
2021/05/10 04:14:43;;;;;;;;;;;;;;;21.50;30.61;98824.56;4924084;29;633;-77
2021/05/10 04:17:09;;;;;;;;;;;;;;;21.49;30.55;98822.97;4923724;29;931;-77
2021/05/10 04:19:34;;;;;;;;;;;;;;;21.46;30.58;98823.84;4923896;29;868;-76
2021/05/10 04:21:59;;;;;;;;;;;;;;;21.62;30.32;98832.53;4923839;29;1911;-77
2021/05/10 04:24:25;;;;;;;;;;;;;;;21.58;30.47;98823.28;4923896;29;667;-77
2021/05/10 04:26:51;;;;;;;;;;;;;;;21.60;30.48;98820.81;4924067;29;655;-77
2021/05/10 04:29:16;;;;;;;;;;;;;;;21.56;30.54;98828.56;4924217;29;640;-77
2021/05/10 04:31:41;;;;;;;;;;;;;;;21.55;30.41;98827.78;4923497;29;850;-77
2021/05/10 04:34:07;;;;;;;;;;;;;;;21.43;30.66;98824.69;4923680;29;916;-76
2021/05/10 04:36:32;;;;;;;;;;;;;;;21.51;30.54;98838.34;4923783;29;977;-76
2021/05/10 04:38:58;;;;;;;;;;;;;;;21.43;30.63;98825.47;4924085;29;672;-77
2021/05/10 04:41:24;;;;;;;;;;;;;;;21.50;30.38;98824.56;4923840;29;1911;-77
2021/05/10 04:43:49;;;;;;;;;;;;;;;21.49;30.51;98834.31;4923870;29;652;-77
2021/05/10 04:46:21;;;;;;;;;;;;;;;21.56;30.42;98834.22;4923461;29;988;-77
2021/05/10 04:48:46;;;;;;;;;;;;;;;21.50;30.52;98841.56;4923355;29;946;-77
2021/05/10 04:51:11;;;;;;;;;;;;;;;21.53;30.57;98829.41;4923758;29;905;-76
2021/05/10 04:53:37;;;;;;;;;;;;;;;21.50;30.52;98827.41;4923618;29;597;-77
2021/05/10 04:56:02;;;;;;;;;;;;;;;21.59;30.43;98833.38;4923649;29;675;-77
2021/05/10 04:58:28;;;;;;;;;;;;;;;21.63;30.50;98831.28;4923646;29;656;-77
2021/05/10 05:00:53;;;;;;;;;;;;;;;21.65;30.32;98831.66;4923275;29;1903;-77
2021/05/10 05:03:19;;;;;;;;;;;;;;;21.62;30.19;98826.84;4923333;29;912;-77
2021/05/10 05:05:44;;;;;;;;;;;;;;;21.66;30.48;98835.28;4923468;29;896;-77
2021/05/10 05:08:10;;;;;;;;;;;;;;;21.48;30.38;98827.84;4923597;29;643;-77
2021/05/10 05:10:35;;;;;;;;;;;;;;;21.57;30.47;98830.16;4923654;29;749;-77
2021/05/10 05:13:00;;;;;;;;;;;;;;;21.70;30.31;98824.72;4923463;29;624;-77
2021/05/10 05:15:26;;;;;;;;;;;;;;;21.49;30.52;98823.78;4923211;29;992;-77
2021/05/10 05:17:51;;;;;;;;;;;;;;;21.46;30.79;98835.16;4923146;29;872;-76
2021/05/10 05:20:18;;;;;;;;;;;;;;;21.51;30.65;98838.34;4923286;29;1903;-77
2021/05/10 05:22:43;;;;;;;;;;;;;;;21.42;30.77;98828.75;4923497;29;690;-77
2021/05/10 05:25:09;;;;;;;;;;;;;;;21.26;31.02;98832.94;4923383;29;679;-76
2021/05/10 05:27:35;;;;;;;;;;;;;;;21.50;30.89;98838.75;4923370;29;620;-77
2021/05/10 05:30:00;;;;;;;;;;;;;;;21.58;30.33;98843.09;4923173;29;924;-77
2021/05/10 05:32:26;;;;;;;;;;;;;;;21.62;30.54;98831.72;4923063;29;897;-77
2021/05/10 05:34:51;;;;;;;;;;;;;;;21.56;30.36;98834.22;4923269;29;1205;-77
2021/05/10 05:37:17;;;;;;;;;;;;;;;21.59;30.42;98839.03;4923299;29;1128;-77
2021/05/10 05:39:42;;;;;;;;;;;;;;;21.60;30.35;98840.63;4923238;29;675;-77
2021/05/10 05:42:08;;;;;;;;;;;;;;;21.52;30.61;98841.97;4906519;29;1969;-77
2021/05/10 05:44:36;;;;;;;;;;;;;;;21.59;30.42;98836.19;4922867;29;1010;-77
2021/05/10 05:47:03;;;;;;;;;;;;;;;21.59;30.70;98844.69;4923324;29;852;-77
2021/05/10 05:49:30;;;;;;;;;;;;;;;21.65;30.25;98843.00;4924958;29;911;-76
2021/05/10 05:51:56;;;;;;;;;;;;;;;21.65;30.46;98848.66;4926604;29;791;-77
2021/05/10 05:54:22;;;;;;;;;;;;;;;21.67;30.55;98851.88;4926744;29;616;-77
2021/05/10 05:56:47;;;;;;;;;;;;;;;21.84;29.84;98850.03;4926586;29;668;-77
2021/05/10 05:59:13;;;;;;;;;;;;;;;21.60;30.34;98851.94;4909577;29;934;-77
2021/05/10 06:01:38;;;;;;;;;;;;;;;21.56;30.72;98842.72;4909834;29;1911;-77
2021/05/10 06:04:04;;;;;;;;;;;;;;;21.55;30.41;98843.94;4926545;29;862;-77
2021/05/10 06:06:29;;;;;;;;;;;;;;;21.53;30.64;98846.41;4926409;29;691;-77
2021/05/10 06:08:55;;;;;;;;;;;;;;;21.60;30.44;98851.94;4926220;29;734;-77
2021/05/10 06:11:21;;;;;;;;;;;;;;;21.58;30.58;98854.41;4926449;29;663;-77
2021/05/10 06:13:46;;;;;;;;;;;;;;;21.61;30.39;98850.75;4925968;29;1101;-77
2021/05/10 06:16:12;;;;;;;;;;;;;;;21.41;30.62;98861.13;4925938;29;829;-76
2021/05/10 06:18:37;;;;;;;;;;;;;;;21.49;30.82;98868.28;4926184;29;987;-77
2021/05/10 06:21:03;;;;;;;;;;;;;;;21.56;30.33;98856.88;4909557;29;1899;-77
2021/05/10 06:23:29;;;;;;;;;;;;;;;21.50;30.75;98858.56;4926038;29;672;-77
2021/05/10 06:25:54;;;;;;;;;;;;;;;21.54;30.42;98854.47;4926420;29;692;-77
2021/05/10 06:28:23;;;;;;;;;;;;;;;21.63;30.17;98856.78;4925705;29;921;-77
2021/05/10 06:30:49;;;;;;;;;;;;;;;21.68;30.05;98859.13;4925541;29;836;-77
2021/05/10 06:33:14;;;;;;;;;;;;;;;21.66;30.14;98855.13;4925854;29;968;-77
2021/05/10 06:35:42;;;;;;;;;;;;;;;21.59;30.35;98856.03;4926243;29;639;-76
2021/05/10 06:38:11;;;;;;;;;;;;;;;21.52;30.42;98856.13;4925708;29;950;-77
2021/05/10 06:40:36;;;;;;;;;;;;;;;21.55;30.30;98856.09;4925776;29;1911;-77
2021/05/10 06:43:02;;;;;;;;;;;;;;;21.48;30.68;98861.81;4925541;29;941;-77
2021/05/10 06:45:27;;;;;;;;;;;;;;;21.53;30.35;98858.53;4925379;29;865;-77
2021/05/10 06:47:53;;;;;;;;;;;;;;;21.63;30.26;98868.13;4925552;29;1101;-77
2021/05/10 06:50:19;;;;;;;;;;;;;;;21.52;30.47;98867.44;4925705;29;641;-77
2021/05/10 06:52:44;;;;;;;;;;;;;;;21.54;30.49;98864.97;4925555;29;679;-77
2021/05/10 06:55:10;;;;;;;;;;;;;;;21.49;30.57;98868.28;4925516;29;702;-77
2021/05/10 06:57:35;;;;;;;;;;;;;;;21.51;30.30;98866.66;4925292;29;979;-77
2021/05/10 07:00:01;;;;;;;;;;;;;;;21.68;30.16;98870.47;4924626;29;1899;-76
2021/05/10 07:02:27;;;;;;;;;;;;;;;21.54;30.18;98865.78;4925168;29;982;-77
2021/05/10 07:04:52;;;;;;;;;;;;;;;21.45;30.34;98868.34;4925320;29;675;-76
2021/05/10 07:07:18;;;;;;;;;;;;;;;21.58;30.04;98865.75;4909325;29;647;-76
2021/05/10 07:09:44;;;;;;;;;;;;;;;21.57;30.07;98872.66;4925303;29;655;-75
2021/05/10 07:12:11;;;;;;;;;;;;;;;21.52;30.42;98864.63;4924860;29;926;-76
2021/05/10 07:14:36;;;;;;;;;;;;;;;21.61;29.99;98876.25;4924913;29;899;-77
2021/05/10 07:17:02;;;;;;;;;;;;;;;21.59;29.93;98873.00;4925060;29;1009;-77
2021/05/10 07:19:27;;;;;;;;;;;;;;;21.62;30.02;98872.19;4925112;29;680;-77
2021/05/10 07:21:53;;;;;;;;;;;;;;;21.58;29.95;98880.72;4925042;29;1903;-77
2021/05/10 07:24:18;;;;;;;;;;;;;;;21.55;30.01;98877.91;4925000;29;664;-76
2021/05/10 07:26:44;;;;;;;;;;;;;;;21.60;30.05;98885.94;4924887;29;962;-77
2021/05/10 07:29:09;;;;;;;;;;;;;;;21.62;30.02;98889.16;4924916;29;960;-77
2021/05/10 07:31:35;;;;;;;;;;;;;;;21.46;30.12;98874.81;4924787;29;940;-77
2021/05/10 07:34:00;;;;;;;;;;;;;;;21.38;30.44;98873.28;4924798;29;719;-77
2021/05/10 07:36:25;;;;;;;;;;;;;;;21.62;29.84;98883.50;4924964;29;981;-77
2021/05/10 07:38:51;;;;;;;;;;;;;;;21.56;30.08;98879.53;4924752;29;624;-76
2021/05/10 07:41:16;;;;;;;;;;;;;;;21.53;30.04;98884.00;4924373;29;1982;-77
2021/05/10 07:43:42;;;;;;;;;;;;;;;21.50;30.05;98881.22;4924375;29;874;-77
2021/05/10 07:46:07;;;;;;;;;;;;;;;21.45;30.20;98885.34;4924630;29;856;-77
2021/05/10 07:48:33;;;;;;;;;;;;;;;21.58;29.89;98888.41;4924549;29;683;-77
2021/05/10 07:50:58;;;;;;;;;;;;;;;21.47;30.14;98888.53;4924530;29;652;-77
2021/05/10 07:53:24;;;;;;;;;;;;;;;21.55;30.09;98886.41;4924554;29;649;-77
2021/05/10 07:55:50;;;;;;;;;;;;;;;21.54;30.17;98887.63;4924149;29;968;-77
2021/05/10 07:58:22;;;;;;;;;;;;;;;21.51;30.34;98894.16;4924077;29;856;-77
2021/05/10 08:00:48;;;;;;;;;;;;;;;21.53;29.81;98883.22;4924206;29;1911;-76
2021/05/10 08:03:16;;;;;;;;;;;;;;;21.49;29.97;98890.94;4924395;29;612;-77
2021/05/10 08:05:43;;;;;;;;;;;;;;;21.54;29.83;98896.13;4924531;29;732;-77
2021/05/10 08:08:09;;;;;;;;;;;;;;;21.67;29.80;98891.53;4924197;29;719;-77
2021/05/10 08:10:35;;;;;;;;;;;;;;;21.50;30.06;98881.22;4907925;29;872;-76
2021/05/10 08:13:22;;;;;;;;;;;;;;;21.58;29.89;98888.41;4923573;29;955;-77
2021/05/10 08:15:48;;;;;;;;;;;;;;;21.65;29.56;98888.31;4924162;29;616;-77
2021/05/10 08:18:13;;;;;;;;;;;;;;;21.66;29.70;98892.75;4924586;29;657;-77
2021/05/10 08:20:39;;;;;;;;;;;;;;;21.52;30.09;98884.44;4923980;29;1973;-77
2021/05/10 08:23:05;;;;;;;;;;;;;;;21.53;29.99;98886.03;4923990;29;667;-77
2021/05/10 08:25:39;;;;;;;;;;;;;;;21.58;29.72;98888.41;4923779;29;1049;-76
2021/05/10 08:28:05;;;;;;;;;;;;;;;21.56;29.84;98883.16;4923671;29;852;-77
2021/05/10 08:30:30;;;;;;;;;;;;;;;21.57;30.15;98892.47;4923861;29;950;-77
2021/05/10 08:32:58;;;;;;;;;;;;;;;21.45;29.99;98878.84;4924134;29;672;-77
2021/05/10 08:35:23;;;;;;;;;;;;;;;21.59;30.00;98878.69;4924058;29;660;-77
2021/05/10 08:37:49;;;;;;;;;;;;;;;21.56;30.09;98885.22;4923729;29;1124;-77
2021/05/10 08:40:14;;;;;;;;;;;;;;;21.55;29.71;98878.75;4923363;29;1899;-76
2021/05/10 08:42:40;;;;;;;;;;;;;;;21.54;29.68;98879.13;4923654;29;829;-77
2021/05/10 08:45:06;;;;;;;;;;;;;;;21.58;29.93;98871.41;4907242;29;1405;-77
2021/05/10 08:47:32;;;;;;;;;;;;;;;21.77;29.49;98879.25;4924041;29;604;-77
2021/05/10 08:49:58;;;;;;;;;;;;;;;21.73;29.47;98870.00;4924134;29;692;-77
2021/05/10 08:52:23;;;;;;;;;;;;;;;21.69;29.66;98865.59;4923663;29;623;-77
2021/05/10 08:54:49;;;;;;;;;;;;;;;21.58;29.80;98877.06;4923283;29;1092;-77
2021/05/10 08:57:14;;;;;;;;;;;;;;;21.51;29.86;98871.50;4923351;29;916;-77
2021/05/10 08:59:41;;;;;;;;;;;;;;;21.62;29.76;98874.22;4923127;29;1203;-77
2021/05/10 09:02:07;;;;;;;;;;;;;;;21.58;29.95;98860.09;4906992;29;1984;-77
2021/05/10 09:04:33;;;;;;;;;;;;;;;21.64;29.83;98866.88;4907190;29;650;-76
2021/05/10 09:07:18;;;;;;;;;;;;;;;21.62;29.91;98855.19;4923721;29;683;-77
2021/05/10 09:09:52;;;;;;;;;;;;;;;21.54;29.95;98864.97;4923302;29;894;-77
2021/05/10 09:12:20;;;;;;;;;;;;;;;21.46;30.05;98858.63;4923292;29;849;-77
2021/05/10 09:14:45;;;;;;;;;;;;;;;21.56;29.92;98851.22;4923866;29;667;-77
2021/05/10 09:17:11;;;;;;;;;;;;;;;21.53;29.95;98852.06;4923425;29;606;-76
2021/05/10 09:19:48;;;;;;;;;;;;;;;21.48;30.07;98850.50;4907092;29;679;-77
2021/05/10 09:22:14;;;;;;;;;;;;;;;21.62;29.75;98848.72;4923301;29;1982;-77
2021/05/10 09:24:46;;;;;;;;;;;;;;;21.66;29.60;98850.28;4909374;29;1193;-77
2021/05/10 09:27:15;;;;;;;;;;;;;;;21.60;30.08;98846.28;4926928;29;961;-77
2021/05/10 09:29:41;;;;;;;;;;;;;;;21.58;29.80;98837.44;4927007;29;711;-77
2021/05/10 09:32:06;;;;;;;;;;;;;;;21.53;29.97;98840.72;4910827;29;720;-76
2021/05/10 09:34:32;;;;;;;;;;;;;;;21.46;30.08;98874.81;4927005;29;715;-76
2021/05/10 09:37:01;;;;;;;;;;;;;;;21.44;30.06;98843.28;4927131;29;950;-77
2021/05/10 09:39:28;;;;;;;;;;;;;;;21.61;30.10;98836.59;4909579;29;969;-77
2021/05/10 09:41:57;;;;;;;;;;;;;;;21.50;29.97;98830.25;4926407;29;1899;-77
2021/05/10 09:44:31;;;;;;;;;;;;;;;21.60;29.91;98829.31;4926869;29;858;-77
2021/05/10 09:47:00;;;;;;;;;;;;;;;21.56;29.95;98834.22;4910358;29;1252;-77
2021/05/10 09:49:41;;;;;;;;;;;;;;;21.65;29.77;98837.31;4927073;29;679;-77
2021/05/10 09:52:18;;;;;;;;;;;;;;;21.58;29.84;98837.44;4926777;29;604;-77
2021/05/10 09:54:51;;;;;;;;;;;;;;;21.60;30.14;98834.97;4926500;29;872;-77
2021/05/10 09:57:17;;;;;;;;;;;;;;;21.54;29.91;98833.84;4926325;29;861;-77
2021/05/10 09:59:42;;;;;;;;;;;;;;;21.63;30.08;98828.47;4910063;29;652;-76
2021/05/10 10:02:16;;;;;;;;;;;;;;;21.57;29.97;98824.50;4909901;29;1976;-77
2021/05/10 10:04:51;;;;;;;;;;;;;;;21.49;30.17;98820.16;4910298;29;1335;-77
2021/05/10 10:07:16;;;;;;;;;;;;;;;21.67;29.75;98823.56;4910056;29;640;-76
2021/05/10 10:09:41;;;;;;;;;;;;;;;21.53;29.97;98818.06;4926220;29;821;-77
2021/05/10 10:12:08;;;;;;;;;;;;;;;21.56;30.04;98817.25;4909638;29;931;-76
2021/05/10 10:14:33;;;;;;;;;;;;;;;21.55;29.92;98815.63;4926230;29;816;-77
2021/05/10 10:16:59;;;;;;;;;;;;;;;21.63;29.84;98805.81;4926587;29;636;-77
2021/05/10 10:19:24;;;;;;;;;;;;;;;21.53;30.26;98806.75;4909817;29;640;-77
2021/05/10 10:21:50;;;;;;;;;;;;;;;21.51;30.16;98804.34;4909647;29;1899;-76
2021/05/10 10:24:15;;;;;;;;;;;;;;;21.60;29.87;98798.16;4909500;29;1058;-76
2021/05/10 10:26:40;;;;;;;;;;;;;;;21.66;30.05;98793.63;4910031;29;837;-76
2021/05/10 10:29:07;;;;;;;;;;;;;;;21.59;29.93;98777.53;4909569;29;837;-76
2021/05/10 10:31:33;;;;;;;;;;;;;;;21.64;29.78;98784.75;4908988;29;920;-77
2021/05/10 10:34:02;;;;;;;;;;;;;;;21.71;29.77;98793.16;4909725;29;616;-77
2021/05/10 10:36:28;;;;;;;;;;;;;;;21.74;29.83;98795.13;4925595;29;1033;-77
2021/05/10 10:39:12;;;;;;;;;;;;;;;21.60;30.23;98786.81;4909448;29;932;-76
2021/05/10 10:41:50;;;;;;;;;;;;;;;21.52;30.06;98782.50;4925409;29;1907;-76
2021/05/10 10:44:27;;;;;;;;;;;;;;;21.37;30.75;98786.75;4925742;29;707;-76
2021/05/10 10:46:53;;;;;;;;;;;;;;;21.58;30.23;98786.47;4925680;29;851;-77
2021/05/10 10:49:25;;;;;;;;;;;;;;;21.66;30.06;98782.31;4909324;29;631;-77
2021/05/10 10:51:51;;;;;;;;;;;;;;;21.61;30.02;98779.94;4909280;29;670;-77
2021/05/10 10:54:18;;;;;;;;;;;;;;;21.65;30.15;98780.69;4925363;29;911;-77
2021/05/10 10:56:53;;;;;;;;;;;;;;;21.59;30.02;98779.56;4908899;29;956;-77
2021/05/10 10:59:22;;;;;;;;;;;;;;;21.54;30.16;98775.16;4925756;29;668;-77
2021/05/10 11:01:48;;;;;;;;;;;;;;;21.77;29.62;98777.28;4925358;29;1906;-77
2021/05/10 11:04:26;;;;;;;;;;;;;;;21.69;29.76;98781.44;4925363;29;732;-78
2021/05/10 11:06:51;;;;;;;;;;;;;;;21.59;30.27;98776.72;4925300;29;653;-76
2021/05/10 11:09:34;;;;;;;;;;;;;;;21.61;29.92;98768.63;4908739;29;943;-76
2021/05/10 11:11:59;;;;;;;;;;;;;;;21.57;30.14;98753.72;4908433;29;1384;-77
2021/05/10 11:14:40;;;;;;;;;;;;;;;21.74;29.73;98755.47;4925611;29;663;-76
2021/05/10 11:17:06;;;;;;;;;;;;;;;21.59;30.03;98760.53;4925123;29;719;-76
2021/05/10 11:19:35;;;;;;;;;;;;;;;21.53;30.03;98750.13;4925234;29;703;-77
2021/05/10 11:22:02;;;;;;;;;;;;;;;21.59;30.40;98754.06;4908584;29;1906;-76
2021/05/10 11:24:31;;;;;;;;;;;;;;;21.59;30.17;98737.88;4908294;29;844;-77
2021/05/10 11:26:58;;;;;;;;;;;;;;;21.58;30.10;98735.47;4908620;29;922;-77
2021/05/10 11:29:27;;;;;;;;;;;;;;;21.57;30.25;98739.53;4925578;29;1003;-77
2021/05/10 11:31:52;;;;;;;;;;;;;;;21.63;30.22;98735.00;4924835;29;669;-77
2021/05/10 11:34:37;;;;;;;;;;;;;;;21.53;30.03;98727.47;4924785;29;635;-76
2021/05/10 11:37:03;;;;;;;;;;;;;;;21.56;30.05;98726.63;4908322;29;988;-76
2021/05/10 11:39:32;;;;;;;;;;;;;;;21.59;30.08;98725.75;4924437;29;837;-76
2021/05/10 11:42:01;;;;;;;;;;;;;;;21.66;29.72;98722.81;4924861;29;1898;-76
2021/05/10 11:44:28;;;;;;;;;;;;;;;21.73;29.73;98719.88;4924657;29;928;-77
2021/05/10 11:46:54;;;;;;;;;;;;;;;21.59;30.00;98717.25;4923941;29;1235;-76
2021/05/10 11:49:29;;;;;;;;;;;;;;;21.59;29.93;98714.41;4924522;29;699;-76
2021/05/10 11:51:56;;;;;;;;;;;;;;;21.57;30.11;98705.56;4924445;29;700;-76
2021/05/10 11:54:22;;;;;;;;;;;;;;;21.64;29.98;98711.09;4924361;29;955;-77
2021/05/10 11:56:49;;;;;;;;;;;;;;;21.63;29.86;98706.69;4924358;29;958;-76
2021/05/10 12:02:14;;;;;;;;;;;;;;;21.49;30.25;98701.22;4924346;29;1903;-76
2021/05/10 12:04:43;;;;;;;;;;;;;;;21.54;29.87;98695.09;4924479;29;680;-76
2021/05/10 12:07:08;;;;;;;;;;;;;;;21.57;29.87;98692.22;4924467;29;731;-76
2021/05/10 12:09:34;;;;;;;;;;;;;;;21.70;29.61;98692.41;4923876;29;1039;-76
2021/05/10 12:11:59;;;;;;;;;;;;;;;21.54;29.92;98689.41;4924005;29;795;-75
2021/05/10 12:14:25;;;;;;;;;;;;;;;21.65;29.79;98692.09;4924110;29;1017;-75
2021/05/10 12:17:00;;;;;;;;;;;;;;;21.61;30.09;98689.31;4924223;29;639;-76
2021/05/10 12:19:26;;;;;;;;;;;;;;;21.48;30.22;98679.81;4924108;29;676;-76
2021/05/10 12:22:03;;;;;;;;;;;;;;;21.55;30.15;98685.34;4923875;29;1903;-77
2021/05/10 12:24:28;;;;;;;;;;;;;;;21.61;30.14;98678.00;4923800;29;853;-76
2021/05/10 12:26:54;;;;;;;;;;;;;;;21.53;29.87;98674.47;4923806;29;894;-76
2021/05/10 12:29:19;;;;;;;;;;;;;;;21.51;30.26;98676.13;4892093;29;1240;-77
2021/05/10 12:31:45;;;;;;;;;;;;;;;21.72;30.02;98672.97;4924146;29;783;-76
2021/05/10 12:34:10;;;;;;;;;;;;;;;21.58;29.83;98676.81;4924005;29;655;-76
2021/05/10 12:36:36;;;;;;;;;;;;;;;21.49;30.12;98670.09;4923646;29;1024;-76
2021/05/10 12:39:11;;;;;;;;;;;;;;;21.65;30.00;98664.56;4907126;29;1223;-77
2021/05/10 12:41:36;;;;;;;;;;;;;;;21.69;29.64;98668.13;4923445;29;1973;-77
2021/05/10 12:44:08;;;;;;;;;;;;;;;21.64;29.68;98677.13;4924120;29;805;-77
2021/05/10 12:46:43;;;;;;;;;;;;;;;21.77;29.48;98669.63;4923859;29;625;-77
2021/05/10 12:49:21;;;;;;;;;;;;;;;21.60;29.62;98676.38;4923852;29;628;-76
2021/05/10 12:51:53;;;;;;;;;;;;;;;21.51;30.25;98678.97;4923754;29;686;-77
2021/05/10 12:54:19;;;;;;;;;;;;;;;21.51;30.10;98670.47;4907468;29;894;-76
2021/05/10 12:56:44;;;;;;;;;;;;;;;21.41;30.27;98686.38;4923328;29;861;-76
2021/05/10 12:59:10;;;;;;;;;;;;;;;21.53;30.12;98676.50;4925486;29;1080;-77
2021/05/10 13:01:36;;;;;;;;;;;;;;;21.54;29.98;98672.44;4911236;29;1895;-77
2021/05/10 13:04:06;;;;;;;;;;;;;;;21.65;29.88;98673.06;4927535;29;616;-76
2021/05/10 13:06:32;;;;;;;;;;;;;;;21.56;30.02;98681.31;4927478;29;724;-76
2021/05/10 13:09:01;;;;;;;;;;;;;;;21.54;30.10;98661.09;4927282;29;843;-76
2021/05/10 13:11:39;;;;;;;;;;;;;;;21.42;30.16;98664.53;4927246;29;790;-76
2021/05/10 13:14:09;;;;;;;;;;;;;;;21.52;30.18;98672.88;4927359;29;988;-76
2021/05/10 13:16:50;;;;;;;;;;;;;;;21.57;30.22;98671.59;4927426;29;663;-76